sensor_id;sensor_type;location;lat;lon;timestamp;P1;durP1;ratioP1;P2;durP2;ratioP2
65597;SDS011;52267;51.984;20.956;2023-06-01T00:00:14;9.70;;;5.30;;
65597;SDS011;52267;51.984;20.956;2023-06-01T00:03:01;10.80;;;5.40;;
65597;SDS011;52267;51.984;20.956;2023-06-01T00:05:29;9.80;;;5.30;;
65597;SDS011;52267;51.984;20.956;2023-06-01T00:07:56;9.20;;;5.20;;
65597;SDS011;52267;51.984;20.956;2023-06-01T00:10:23;10.50;;;5.10;;
65597;SDS011;52267;51.984;20.956;2023-06-01T00:12:50;8.70;;;5.60;;
65597;SDS011;52267;51.984;20.956;2023-06-01T00:15:17;8.80;;;5.20;;
65597;SDS011;52267;51.984;20.956;2023-06-01T00:17:44;9.00;;;5.50;;
65597;SDS011;52267;51.984;20.956;2023-06-01T00:20:11;9.90;;;5.10;;
65597;SDS011;52267;51.984;20.956;2023-06-01T00:22:38;9.70;;;5.10;;
65597;SDS011;52267;51.984;20.956;2023-06-01T00:25:08;10.50;;;5.80;;
65597;SDS011;52267;51.984;20.956;2023-06-01T00:27:36;8.70;;;5.40;;
65597;SDS011;52267;51.984;20.956;2023-06-01T00:30:04;9.20;;;5.40;;
65597;SDS011;52267;51.984;20.956;2023-06-01T00:32:31;9.80;;;5.60;;
65597;SDS011;52267;51.984;20.956;2023-06-01T00:34:58;9.20;;;5.40;;
65597;SDS011;52267;51.984;20.956;2023-06-01T00:37:25;10.10;;;5.90;;
65597;SDS011;52267;51.984;20.956;2023-06-01T00:39:52;11.30;;;5.40;;
65597;SDS011;52267;51.984;20.956;2023-06-01T00:42:19;8.00;;;4.70;;
65597;SDS011;52267;51.984;20.956;2023-06-01T00:44:50;12.70;;;5.50;;
65597;SDS011;52267;51.984;20.956;2023-06-01T00:47:17;8.70;;;5.40;;
65597;SDS011;52267;51.984;20.956;2023-06-01T00:49:45;9.90;;;5.30;;
65597;SDS011;52267;51.984;20.956;2023-06-01T00:52:12;11.30;;;5.90;;
65597;SDS011;52267;51.984;20.956;2023-06-01T00:54:40;9.30;;;4.90;;
65597;SDS011;52267;51.984;20.956;2023-06-01T00:57:07;9.20;;;5.10;;
65597;SDS011;52267;51.984;20.956;2023-06-01T00:59:34;13.50;;;5.20;;
65597;SDS011;52267;51.984;20.956;2023-06-01T01:02:02;7.90;;;5.60;;
65597;SDS011;52267;51.984;20.956;2023-06-01T01:04:30;9.10;;;5.10;;
65597;SDS011;52267;51.984;20.956;2023-06-01T01:07:12;9.00;;;5.10;;
65597;SDS011;52267;51.984;20.956;2023-06-01T01:10:20;9.90;;;5.50;;
65597;SDS011;52267;51.984;20.956;2023-06-01T01:13:14;10.10;;;6.00;;
65597;SDS011;52267;51.984;20.956;2023-06-01T01:18:34;10.10;;;4.90;;
65597;SDS011;52267;51.984;20.956;2023-06-01T01:21:04;10.10;;;5.80;;
65597;SDS011;52267;51.984;20.956;2023-06-01T01:27:04;12.70;;;5.50;;
65597;SDS011;52267;51.984;20.956;2023-06-01T01:29:42;9.40;;;5.20;;
65597;SDS011;52267;51.984;20.956;2023-06-01T01:32:11;10.90;;;6.00;;
65597;SDS011;52267;51.984;20.956;2023-06-01T01:34:40;8.60;;;5.10;;
65597;SDS011;52267;51.984;20.956;2023-06-01T01:37:10;8.20;;;5.00;;
65597;SDS011;52267;51.984;20.956;2023-06-01T01:39:37;7.90;;;4.70;;
65597;SDS011;52267;51.984;20.956;2023-06-01T01:42:04;9.10;;;4.70;;
65597;SDS011;52267;51.984;20.956;2023-06-01T01:44:32;8.30;;;5.10;;
65597;SDS011;52267;51.984;20.956;2023-06-01T01:50:27;8.00;;;5.00;;
65597;SDS011;52267;51.984;20.956;2023-06-01T01:52:57;10.80;;;5.40;;
65597;SDS011;52267;51.984;20.956;2023-06-01T01:55:26;9.60;;;4.90;;
65597;SDS011;52267;51.984;20.956;2023-06-01T01:57:56;8.00;;;4.50;;
65597;SDS011;52267;51.984;20.956;2023-06-01T02:00:23;10.00;;;5.50;;
65597;SDS011;52267;51.984;20.956;2023-06-01T02:02:50;8.40;;;5.00;;
65597;SDS011;52267;51.984;20.956;2023-06-01T02:05:18;7.10;;;4.70;;
65597;SDS011;52267;51.984;20.956;2023-06-01T02:07:45;8.90;;;4.90;;
65597;SDS011;52267;51.984;20.956;2023-06-01T02:10:12;7.70;;;4.70;;
65597;SDS011;52267;51.984;20.956;2023-06-01T02:12:39;8.90;;;5.00;;
65597;SDS011;52267;51.984;20.956;2023-06-01T02:15:06;7.50;;;4.70;;
65597;SDS011;52267;51.984;20.956;2023-06-01T02:17:34;7.30;;;5.00;;
65597;SDS011;52267;51.984;20.956;2023-06-01T02:20:02;8.20;;;4.70;;
65597;SDS011;52267;51.984;20.956;2023-06-01T02:22:29;9.40;;;4.40;;
65597;SDS011;52267;51.984;20.956;2023-06-01T02:24:56;7.10;;;4.30;;
65597;SDS011;52267;51.984;20.956;2023-06-01T02:27:23;10.70;;;4.50;;
65597;SDS011;52267;51.984;20.956;2023-06-01T02:29:50;8.00;;;5.00;;
65597;SDS011;52267;51.984;20.956;2023-06-01T02:32:17;7.40;;;4.30;;
65597;SDS011;52267;51.984;20.956;2023-06-01T02:34:44;7.10;;;4.20;;
65597;SDS011;52267;51.984;20.956;2023-06-01T02:37:11;6.60;;;4.00;;
65597;SDS011;52267;51.984;20.956;2023-06-01T02:39:38;7.80;;;4.20;;
65597;SDS011;52267;51.984;20.956;2023-06-01T02:42:05;8.50;;;4.60;;
65597;SDS011;52267;51.984;20.956;2023-06-01T02:44:33;8.60;;;4.30;;
65597;SDS011;52267;51.984;20.956;2023-06-01T02:47:00;7.80;;;4.60;;
65597;SDS011;52267;51.984;20.956;2023-06-01T02:49:27;6.90;;;4.50;;
65597;SDS011;52267;51.984;20.956;2023-06-01T02:51:54;6.50;;;4.20;;
65597;SDS011;52267;51.984;20.956;2023-06-01T02:54:21;8.60;;;4.00;;
65597;SDS011;52267;51.984;20.956;2023-06-01T02:56:48;11.20;;;4.30;;
65597;SDS011;52267;51.984;20.956;2023-06-01T02:59:15;8.70;;;4.10;;
65597;SDS011;52267;51.984;20.956;2023-06-01T03:01:42;7.10;;;4.20;;
65597;SDS011;52267;51.984;20.956;2023-06-01T03:04:09;7.30;;;3.90;;
65597;SDS011;52267;51.984;20.956;2023-06-01T03:06:37;5.80;;;4.00;;
65597;SDS011;52267;51.984;20.956;2023-06-01T03:09:04;6.40;;;4.00;;
65597;SDS011;52267;51.984;20.956;2023-06-01T03:11:31;7.30;;;3.80;;
65597;SDS011;52267;51.984;20.956;2023-06-01T03:13:58;6.60;;;4.00;;
65597;SDS011;52267;51.984;20.956;2023-06-01T03:16:26;9.50;;;4.10;;
65597;SDS011;52267;51.984;20.956;2023-06-01T03:18:53;10.80;;;5.00;;
65597;SDS011;52267;51.984;20.956;2023-06-01T03:21:21;9.10;;;4.20;;
65597;SDS011;52267;51.984;20.956;2023-06-01T03:23:48;7.50;;;4.00;;
65597;SDS011;52267;51.984;20.956;2023-06-01T03:26:15;8.50;;;4.80;;
65597;SDS011;52267;51.984;20.956;2023-06-01T03:28:45;9.20;;;4.10;;
65597;SDS011;52267;51.984;20.956;2023-06-01T03:31:12;7.20;;;4.10;;
65597;SDS011;52267;51.984;20.956;2023-06-01T03:33:39;9.20;;;3.60;;
65597;SDS011;52267;51.984;20.956;2023-06-01T03:36:07;5.20;;;3.20;;
65597;SDS011;52267;51.984;20.956;2023-06-01T03:38:34;7.30;;;3.40;;
65597;SDS011;52267;51.984;20.956;2023-06-01T03:41:02;5.50;;;3.50;;
65597;SDS011;52267;51.984;20.956;2023-06-01T03:43:29;8.20;;;4.60;;
65597;SDS011;52267;51.984;20.956;2023-06-01T03:45:56;6.40;;;4.00;;
65597;SDS011;52267;51.984;20.956;2023-06-01T03:48:23;6.70;;;3.90;;
65597;SDS011;52267;51.984;20.956;2023-06-01T03:50:50;8.60;;;4.10;;
65597;SDS011;52267;51.984;20.956;2023-06-01T03:53:17;7.50;;;3.20;;
65597;SDS011;52267;51.984;20.956;2023-06-01T03:55:44;10.40;;;4.00;;
65597;SDS011;52267;51.984;20.956;2023-06-01T03:58:12;6.40;;;3.70;;
65597;SDS011;52267;51.984;20.956;2023-06-01T04:00:42;6.90;;;3.60;;
65597;SDS011;52267;51.984;20.956;2023-06-01T04:03:13;11.80;;;4.80;;
65597;SDS011;52267;51.984;20.956;2023-06-01T04:05:41;14.50;;;4.00;;
65597;SDS011;52267;51.984;20.956;2023-06-01T04:08:14;14.20;;;4.80;;
65597;SDS011;52267;51.984;20.956;2023-06-01T04:10:41;8.20;;;3.50;;
65597;SDS011;52267;51.984;20.956;2023-06-01T04:13:08;8.00;;;3.70;;
65597;SDS011;52267;51.984;20.956;2023-06-01T04:15:37;7.60;;;4.00;;
65597;SDS011;52267;51.984;20.956;2023-06-01T04:18:05;6.10;;;3.30;;
65597;SDS011;52267;51.984;20.956;2023-06-01T04:20:32;8.70;;;3.50;;
65597;SDS011;52267;51.984;20.956;2023-06-01T04:23:01;7.50;;;3.60;;
65597;SDS011;52267;51.984;20.956;2023-06-01T04:25:28;6.80;;;3.20;;
65597;SDS011;52267;51.984;20.956;2023-06-01T04:27:56;8.30;;;3.70;;
65597;SDS011;52267;51.984;20.956;2023-06-01T04:30:23;8.70;;;3.10;;
65597;SDS011;52267;51.984;20.956;2023-06-01T04:32:50;9.20;;;4.00;;
65597;SDS011;52267;51.984;20.956;2023-06-01T04:35:17;7.00;;;3.70;;
65597;SDS011;52267;51.984;20.956;2023-06-01T04:37:45;8.70;;;3.90;;
65597;SDS011;52267;51.984;20.956;2023-06-01T04:40:12;6.60;;;3.10;;
65597;SDS011;52267;51.984;20.956;2023-06-01T04:42:42;6.20;;;3.30;;
65597;SDS011;52267;51.984;20.956;2023-06-01T04:45:12;10.30;;;4.00;;
65597;SDS011;52267;51.984;20.956;2023-06-01T04:47:40;7.20;;;3.50;;
65597;SDS011;52267;51.984;20.956;2023-06-01T04:50:08;6.10;;;3.60;;
65597;SDS011;52267;51.984;20.956;2023-06-01T04:52:37;8.90;;;4.30;;
65597;SDS011;52267;51.984;20.956;2023-06-01T04:55:05;8.30;;;3.70;;
65597;SDS011;52267;51.984;20.956;2023-06-01T04:57:33;8.60;;;4.20;;
65597;SDS011;52267;51.984;20.956;2023-06-01T05:00:03;7.80;;;3.60;;
65597;SDS011;52267;51.984;20.956;2023-06-01T05:02:38;7.50;;;3.50;;
65597;SDS011;52267;51.984;20.956;2023-06-01T05:05:14;6.40;;;3.10;;
65597;SDS011;52267;51.984;20.956;2023-06-01T05:07:42;7.40;;;4.30;;
65597;SDS011;52267;51.984;20.956;2023-06-01T05:10:11;8.60;;;4.80;;
65597;SDS011;52267;51.984;20.956;2023-06-01T05:12:38;6.60;;;3.30;;
65597;SDS011;52267;51.984;20.956;2023-06-01T05:15:07;7.60;;;3.50;;
65597;SDS011;52267;51.984;20.956;2023-06-01T05:17:35;10.30;;;3.50;;
65597;SDS011;52267;51.984;20.956;2023-06-01T05:20:02;8.70;;;3.60;;
65597;SDS011;52267;51.984;20.956;2023-06-01T05:22:30;6.10;;;3.40;;
65597;SDS011;52267;51.984;20.956;2023-06-01T05:24:57;11.60;;;3.60;;
65597;SDS011;52267;51.984;20.956;2023-06-01T05:27:24;6.80;;;2.90;;
65597;SDS011;52267;51.984;20.956;2023-06-01T05:29:51;8.00;;;3.60;;
65597;SDS011;52267;51.984;20.956;2023-06-01T05:32:19;7.60;;;3.30;;
65597;SDS011;52267;51.984;20.956;2023-06-01T05:34:46;9.10;;;3.50;;
65597;SDS011;52267;51.984;20.956;2023-06-01T05:37:13;5.20;;;2.80;;
65597;SDS011;52267;51.984;20.956;2023-06-01T05:39:40;7.30;;;3.60;;
65597;SDS011;52267;51.984;20.956;2023-06-01T05:42:07;10.50;;;3.70;;
65597;SDS011;52267;51.984;20.956;2023-06-01T05:44:35;9.10;;;4.10;;
65597;SDS011;52267;51.984;20.956;2023-06-01T05:47:05;6.80;;;3.30;;
65597;SDS011;52267;51.984;20.956;2023-06-01T05:49:35;11.10;;;3.00;;
65597;SDS011;52267;51.984;20.956;2023-06-01T05:52:03;10.30;;;3.20;;
65597;SDS011;52267;51.984;20.956;2023-06-01T05:54:32;8.60;;;3.50;;
65597;SDS011;52267;51.984;20.956;2023-06-01T05:56:59;5.40;;;2.90;;
65597;SDS011;52267;51.984;20.956;2023-06-01T05:59:26;7.60;;;3.60;;
65597;SDS011;52267;51.984;20.956;2023-06-01T06:01:53;8.70;;;4.20;;
65597;SDS011;52267;51.984;20.956;2023-06-01T06:04:20;6.20;;;3.60;;
65597;SDS011;52267;51.984;20.956;2023-06-01T06:06:48;6.90;;;4.00;;
65597;SDS011;52267;51.984;20.956;2023-06-01T06:09:16;8.30;;;4.00;;
65597;SDS011;52267;51.984;20.956;2023-06-01T06:11:43;7.20;;;3.90;;
65597;SDS011;52267;51.984;20.956;2023-06-01T06:14:10;6.30;;;3.10;;
65597;SDS011;52267;51.984;20.956;2023-06-01T06:16:38;6.80;;;3.70;;
65597;SDS011;52267;51.984;20.956;2023-06-01T06:19:06;6.40;;;2.90;;
65597;SDS011;52267;51.984;20.956;2023-06-01T06:21:33;5.40;;;3.30;;
65597;SDS011;52267;51.984;20.956;2023-06-01T06:24:01;6.50;;;3.20;;
65597;SDS011;52267;51.984;20.956;2023-06-01T06:26:29;5.40;;;2.90;;
65597;SDS011;52267;51.984;20.956;2023-06-01T06:28:56;7.60;;;2.70;;
65597;SDS011;52267;51.984;20.956;2023-06-01T06:31:24;7.20;;;3.20;;
65597;SDS011;52267;51.984;20.956;2023-06-01T06:33:52;7.50;;;2.80;;
65597;SDS011;52267;51.984;20.956;2023-06-01T06:36:19;10.70;;;3.30;;
65597;SDS011;52267;51.984;20.956;2023-06-01T06:38:46;5.50;;;2.40;;
65597;SDS011;52267;51.984;20.956;2023-06-01T06:41:13;6.90;;;2.70;;
65597;SDS011;52267;51.984;20.956;2023-06-01T06:43:40;5.50;;;2.60;;
65597;SDS011;52267;51.984;20.956;2023-06-01T06:46:07;4.30;;;2.00;;
65597;SDS011;52267;51.984;20.956;2023-06-01T06:48:35;5.80;;;2.00;;
65597;SDS011;52267;51.984;20.956;2023-06-01T06:51:02;6.60;;;2.50;;
65597;SDS011;52267;51.984;20.956;2023-06-01T06:53:29;4.70;;;1.80;;
65597;SDS011;52267;51.984;20.956;2023-06-01T06:55:56;5.60;;;2.30;;
65597;SDS011;52267;51.984;20.956;2023-06-01T06:58:23;5.80;;;2.70;;
65597;SDS011;52267;51.984;20.956;2023-06-01T07:00:51;9.70;;;2.40;;
65597;SDS011;52267;51.984;20.956;2023-06-01T07:03:18;5.30;;;2.20;;
65597;SDS011;52267;51.984;20.956;2023-06-01T07:05:46;4.50;;;2.10;;
65597;SDS011;52267;51.984;20.956;2023-06-01T07:08:14;4.60;;;2.30;;
65597;SDS011;52267;51.984;20.956;2023-06-01T07:10:41;5.60;;;2.20;;
65597;SDS011;52267;51.984;20.956;2023-06-01T07:13:09;5.40;;;2.40;;
65597;SDS011;52267;51.984;20.956;2023-06-01T07:15:36;6.10;;;2.40;;
65597;SDS011;52267;51.984;20.956;2023-06-01T07:18:03;4.90;;;2.40;;
65597;SDS011;52267;51.984;20.956;2023-06-01T07:20:30;4.70;;;2.10;;
65597;SDS011;52267;51.984;20.956;2023-06-01T07:22:57;3.60;;;2.00;;
65597;SDS011;52267;51.984;20.956;2023-06-01T07:25:24;5.00;;;2.00;;
65597;SDS011;52267;51.984;20.956;2023-06-01T07:27:51;5.30;;;2.70;;
65597;SDS011;52267;51.984;20.956;2023-06-01T07:30:19;7.60;;;2.50;;
65597;SDS011;52267;51.984;20.956;2023-06-01T07:32:46;5.10;;;2.60;;
65597;SDS011;52267;51.984;20.956;2023-06-01T07:35:13;4.20;;;2.20;;
65597;SDS011;52267;51.984;20.956;2023-06-01T07:37:40;4.70;;;2.30;;
65597;SDS011;52267;51.984;20.956;2023-06-01T07:40:08;3.80;;;2.40;;
65597;SDS011;52267;51.984;20.956;2023-06-01T07:42:35;7.20;;;2.40;;
65597;SDS011;52267;51.984;20.956;2023-06-01T07:45:02;6.50;;;1.90;;
65597;SDS011;52267;51.984;20.956;2023-06-01T07:47:30;5.50;;;2.30;;
65597;SDS011;52267;51.984;20.956;2023-06-01T07:49:57;7.30;;;2.10;;
65597;SDS011;52267;51.984;20.956;2023-06-01T07:52:24;5.00;;;2.20;;
65597;SDS011;52267;51.984;20.956;2023-06-01T07:54:51;5.30;;;2.30;;
65597;SDS011;52267;51.984;20.956;2023-06-01T07:57:18;6.10;;;2.30;;
65597;SDS011;52267;51.984;20.956;2023-06-01T07:59:46;6.20;;;2.20;;
65597;SDS011;52267;51.984;20.956;2023-06-01T08:02:13;6.10;;;2.10;;
65597;SDS011;52267;51.984;20.956;2023-06-01T08:04:40;5.10;;;2.40;;
65597;SDS011;52267;51.984;20.956;2023-06-01T08:07:08;4.10;;;2.00;;
65597;SDS011;52267;51.984;20.956;2023-06-01T08:09:35;5.20;;;2.20;;
65597;SDS011;52267;51.984;20.956;2023-06-01T08:12:04;4.30;;;2.30;;
65597;SDS011;52267;51.984;20.956;2023-06-01T08:14:32;4.10;;;2.00;;
65597;SDS011;52267;51.984;20.956;2023-06-01T08:17:03;5.30;;;2.00;;
65597;SDS011;52267;51.984;20.956;2023-06-01T08:19:34;3.40;;;1.70;;
65597;SDS011;52267;51.984;20.956;2023-06-01T08:22:02;6.80;;;2.10;;
65597;SDS011;52267;51.984;20.956;2023-06-01T08:24:31;4.70;;;1.90;;
65597;SDS011;52267;51.984;20.956;2023-06-01T08:26:58;5.40;;;2.10;;
65597;SDS011;52267;51.984;20.956;2023-06-01T08:29:27;5.20;;;2.00;;
65597;SDS011;52267;51.984;20.956;2023-06-01T08:31:54;6.40;;;2.40;;
65597;SDS011;52267;51.984;20.956;2023-06-01T08:34:25;4.40;;;1.90;;
65597;SDS011;52267;51.984;20.956;2023-06-01T08:36:52;4.90;;;2.10;;
65597;SDS011;52267;51.984;20.956;2023-06-01T08:39:22;4.60;;;2.40;;
65597;SDS011;52267;51.984;20.956;2023-06-01T08:42:08;5.30;;;2.10;;
65597;SDS011;52267;51.984;20.956;2023-06-01T08:44:40;5.80;;;2.30;;
65597;SDS011;52267;51.984;20.956;2023-06-01T08:47:08;4.50;;;2.10;;
65597;SDS011;52267;51.984;20.956;2023-06-01T08:49:36;5.40;;;2.50;;
65597;SDS011;52267;51.984;20.956;2023-06-01T08:52:09;5.50;;;2.30;;
65597;SDS011;52267;51.984;20.956;2023-06-01T08:54:39;4.90;;;2.10;;
65597;SDS011;52267;51.984;20.956;2023-06-01T08:57:07;6.90;;;1.90;;
65597;SDS011;52267;51.984;20.956;2023-06-01T08:59:35;4.50;;;1.90;;
65597;SDS011;52267;51.984;20.956;2023-06-01T09:02:03;4.00;;;1.70;;
65597;SDS011;52267;51.984;20.956;2023-06-01T09:04:32;3.90;;;1.60;;
65597;SDS011;52267;51.984;20.956;2023-06-01T09:07:05;4.30;;;1.70;;
65597;SDS011;52267;51.984;20.956;2023-06-01T09:09:32;4.10;;;1.90;;
65597;SDS011;52267;51.984;20.956;2023-06-01T09:15:15;3.80;;;1.90;;
65597;SDS011;52267;51.984;20.956;2023-06-01T09:17:48;4.40;;;2.00;;
65597;SDS011;52267;51.984;20.956;2023-06-01T09:20:23;3.50;;;1.80;;
65597;SDS011;52267;51.984;20.956;2023-06-01T09:22:53;4.00;;;2.10;;
65597;SDS011;52267;51.984;20.956;2023-06-01T09:25:26;4.30;;;2.40;;
65597;SDS011;52267;51.984;20.956;2023-06-01T09:27:56;7.30;;;2.30;;
65597;SDS011;52267;51.984;20.956;2023-06-01T09:30:37;5.00;;;2.10;;
65597;SDS011;52267;51.984;20.956;2023-06-01T09:33:09;4.90;;;1.80;;
65597;SDS011;52267;51.984;20.956;2023-06-01T09:35:47;5.50;;;1.90;;
65597;SDS011;52267;51.984;20.956;2023-06-01T09:38:23;5.40;;;2.10;;
65597;SDS011;52267;51.984;20.956;2023-06-01T09:40:59;4.40;;;2.20;;
65597;SDS011;52267;51.984;20.956;2023-06-01T09:43:29;5.20;;;2.40;;
65597;SDS011;52267;51.984;20.956;2023-06-01T09:46:08;3.90;;;2.20;;
65597;SDS011;52267;51.984;20.956;2023-06-01T09:48:36;4.20;;;1.70;;
65597;SDS011;52267;51.984;20.956;2023-06-01T09:51:03;4.20;;;1.90;;
65597;SDS011;52267;51.984;20.956;2023-06-01T09:53:40;3.60;;;1.90;;
65597;SDS011;52267;51.984;20.956;2023-06-01T09:56:08;4.30;;;2.10;;
65597;SDS011;52267;51.984;20.956;2023-06-01T09:58:35;4.50;;;2.30;;
65597;SDS011;52267;51.984;20.956;2023-06-01T10:03:41;3.80;;;1.80;;
65597;SDS011;52267;51.984;20.956;2023-06-01T10:06:12;5.50;;;2.20;;
65597;SDS011;52267;51.984;20.956;2023-06-01T10:11:08;6.30;;;1.90;;
65597;SDS011;52267;51.984;20.956;2023-06-01T10:13:36;4.70;;;1.90;;
65597;SDS011;52267;51.984;20.956;2023-06-01T10:16:03;4.10;;;1.90;;
65597;SDS011;52267;51.984;20.956;2023-06-01T10:18:31;4.10;;;1.90;;
65597;SDS011;52267;51.984;20.956;2023-06-01T10:20:59;4.50;;;2.60;;
65597;SDS011;52267;51.984;20.956;2023-06-01T10:23:26;5.90;;;2.40;;
65597;SDS011;52267;51.984;20.956;2023-06-01T10:25:54;3.60;;;2.10;;
65597;SDS011;52267;51.984;20.956;2023-06-01T10:28:22;4.30;;;2.00;;
65597;SDS011;52267;51.984;20.956;2023-06-01T10:34:09;4.00;;;2.10;;
65597;SDS011;52267;51.984;20.956;2023-06-01T10:39:27;5.40;;;2.00;;
65597;SDS011;52267;51.984;20.956;2023-06-01T10:41:57;4.30;;;1.90;;
65597;SDS011;52267;51.984;20.956;2023-06-01T10:52:36;4.90;;;2.00;;
65597;SDS011;52267;51.984;20.956;2023-06-01T10:57:38;5.20;;;2.30;;
65597;SDS011;52267;51.984;20.956;2023-06-01T11:00:22;4.60;;;2.20;;
65597;SDS011;52267;51.984;20.956;2023-06-01T11:03:03;4.10;;;1.80;;
65597;SDS011;52267;51.984;20.956;2023-06-01T11:05:50;4.70;;;2.20;;
65597;SDS011;52267;51.984;20.956;2023-06-01T11:13:23;3.30;;;1.80;;
65597;SDS011;52267;51.984;20.956;2023-06-01T11:21:12;3.90;;;2.10;;
65597;SDS011;52267;51.984;20.956;2023-06-01T11:23:44;5.10;;;2.00;;
65597;SDS011;52267;51.984;20.956;2023-06-01T11:26:16;3.60;;;2.30;;
65597;SDS011;52267;51.984;20.956;2023-06-01T11:28:46;4.20;;;2.00;;
65597;SDS011;52267;51.984;20.956;2023-06-01T11:31:15;4.40;;;1.90;;
65597;SDS011;52267;51.984;20.956;2023-06-01T11:33:49;6.50;;;2.40;;
65597;SDS011;52267;51.984;20.956;2023-06-01T11:36:23;4.70;;;2.20;;
65597;SDS011;52267;51.984;20.956;2023-06-01T11:38:52;5.30;;;2.50;;
65597;SDS011;52267;51.984;20.956;2023-06-01T11:41:22;6.70;;;2.20;;
65597;SDS011;52267;51.984;20.956;2023-06-01T11:43:56;4.70;;;2.20;;
65597;SDS011;52267;51.984;20.956;2023-06-01T11:46:24;5.40;;;2.00;;
65597;SDS011;52267;51.984;20.956;2023-06-01T11:49:02;5.20;;;2.40;;
65597;SDS011;52267;51.984;20.956;2023-06-01T11:51:36;5.40;;;1.90;;
65597;SDS011;52267;51.984;20.956;2023-06-01T11:54:05;5.20;;;2.00;;
65597;SDS011;52267;51.984;20.956;2023-06-01T11:56:34;5.50;;;2.50;;
65597;SDS011;52267;51.984;20.956;2023-06-01T11:59:04;4.60;;;2.60;;
65597;SDS011;52267;51.984;20.956;2023-06-01T12:01:55;8.70;;;2.70;;
65597;SDS011;52267;51.984;20.956;2023-06-01T12:04:23;5.00;;;2.30;;
65597;SDS011;52267;51.984;20.956;2023-06-01T12:07:03;5.90;;;2.60;;
65597;SDS011;52267;51.984;20.956;2023-06-01T12:11:59;6.30;;;2.40;;
65597;SDS011;52267;51.984;20.956;2023-06-01T12:14:27;5.10;;;2.20;;
65597;SDS011;52267;51.984;20.956;2023-06-01T12:16:56;5.10;;;2.30;;
65597;SDS011;52267;51.984;20.956;2023-06-01T12:21:55;5.80;;;2.50;;
65597;SDS011;52267;51.984;20.956;2023-06-01T12:24:31;4.90;;;2.60;;
65597;SDS011;52267;51.984;20.956;2023-06-01T12:27:00;4.60;;;2.30;;
65597;SDS011;52267;51.984;20.956;2023-06-01T12:29:55;4.00;;;2.40;;
65597;SDS011;52267;51.984;20.956;2023-06-01T12:32:37;5.60;;;2.60;;
65597;SDS011;52267;51.984;20.956;2023-06-01T12:35:05;4.90;;;2.10;;
65597;SDS011;52267;51.984;20.956;2023-06-01T12:37:33;4.40;;;2.50;;
65597;SDS011;52267;51.984;20.956;2023-06-01T12:40:01;6.50;;;2.60;;
65597;SDS011;52267;51.984;20.956;2023-06-01T12:42:37;5.00;;;2.40;;
65597;SDS011;52267;51.984;20.956;2023-06-01T12:45:06;6.60;;;3.20;;
65597;SDS011;52267;51.984;20.956;2023-06-01T12:47:39;6.00;;;2.30;;
65597;SDS011;52267;51.984;20.956;2023-06-01T12:50:10;6.30;;;2.90;;
65597;SDS011;52267;51.984;20.956;2023-06-01T12:52:40;5.40;;;2.60;;
65597;SDS011;52267;51.984;20.956;2023-06-01T12:55:09;5.30;;;2.70;;
65597;SDS011;52267;51.984;20.956;2023-06-01T12:57:37;4.20;;;2.50;;
65597;SDS011;52267;51.984;20.956;2023-06-01T13:00:05;6.70;;;2.50;;
65597;SDS011;52267;51.984;20.956;2023-06-01T13:02:33;5.00;;;2.30;;
65597;SDS011;52267;51.984;20.956;2023-06-01T13:05:01;6.20;;;2.20;;
65597;SDS011;52267;51.984;20.956;2023-06-01T13:07:28;5.70;;;2.70;;
65597;SDS011;52267;51.984;20.956;2023-06-01T13:09:55;5.30;;;2.60;;
65597;SDS011;52267;51.984;20.956;2023-06-01T13:12:25;5.40;;;2.50;;
65597;SDS011;52267;51.984;20.956;2023-06-01T13:14:54;4.40;;;2.50;;
65597;SDS011;52267;51.984;20.956;2023-06-01T13:17:22;8.50;;;2.60;;
65597;SDS011;52267;51.984;20.956;2023-06-01T13:19:49;7.20;;;2.80;;
65597;SDS011;52267;51.984;20.956;2023-06-01T13:22:16;5.10;;;2.40;;
65597;SDS011;52267;51.984;20.956;2023-06-01T13:24:44;6.00;;;2.40;;
65597;SDS011;52267;51.984;20.956;2023-06-01T13:27:11;5.80;;;2.60;;
65597;SDS011;52267;51.984;20.956;2023-06-01T13:29:38;6.60;;;2.80;;
65597;SDS011;52267;51.984;20.956;2023-06-01T13:32:06;5.00;;;3.00;;
65597;SDS011;52267;51.984;20.956;2023-06-01T13:34:35;3.80;;;2.20;;
65597;SDS011;52267;51.984;20.956;2023-06-01T13:37:02;5.60;;;2.60;;
65597;SDS011;52267;51.984;20.956;2023-06-01T13:39:29;7.10;;;2.70;;
65597;SDS011;52267;51.984;20.956;2023-06-01T13:41:56;4.90;;;2.70;;
65597;SDS011;52267;51.984;20.956;2023-06-01T13:44:23;5.90;;;2.50;;
65597;SDS011;52267;51.984;20.956;2023-06-01T13:46:50;4.50;;;2.60;;
65597;SDS011;52267;51.984;20.956;2023-06-01T13:49:18;5.30;;;2.70;;
65597;SDS011;52267;51.984;20.956;2023-06-01T13:51:45;6.10;;;2.90;;
65597;SDS011;52267;51.984;20.956;2023-06-01T13:54:12;5.00;;;2.70;;
65597;SDS011;52267;51.984;20.956;2023-06-01T13:56:39;4.70;;;2.60;;
65597;SDS011;52267;51.984;20.956;2023-06-01T13:59:07;4.70;;;2.60;;
65597;SDS011;52267;51.984;20.956;2023-06-01T14:01:34;6.90;;;2.90;;
65597;SDS011;52267;51.984;20.956;2023-06-01T14:04:02;6.10;;;2.90;;
65597;SDS011;52267;51.984;20.956;2023-06-01T14:06:29;5.20;;;2.70;;
65597;SDS011;52267;51.984;20.956;2023-06-01T14:08:57;5.70;;;3.30;;
65597;SDS011;52267;51.984;20.956;2023-06-01T14:11:25;4.90;;;2.70;;
65597;SDS011;52267;51.984;20.956;2023-06-01T14:13:54;6.10;;;3.30;;
65597;SDS011;52267;51.984;20.956;2023-06-01T14:16:21;4.80;;;2.60;;
65597;SDS011;52267;51.984;20.956;2023-06-01T14:18:48;4.70;;;2.70;;
65597;SDS011;52267;51.984;20.956;2023-06-01T14:21:16;4.40;;;2.20;;
65597;SDS011;52267;51.984;20.956;2023-06-01T14:23:43;3.80;;;2.20;;
65597;SDS011;52267;51.984;20.956;2023-06-01T14:26:11;9.50;;;3.10;;
65597;SDS011;52267;51.984;20.956;2023-06-01T14:28:38;4.70;;;2.50;;
65597;SDS011;52267;51.984;20.956;2023-06-01T14:31:05;5.00;;;2.60;;
65597;SDS011;52267;51.984;20.956;2023-06-01T14:33:33;5.90;;;2.80;;
65597;SDS011;52267;51.984;20.956;2023-06-01T14:36:00;5.20;;;2.90;;
65597;SDS011;52267;51.984;20.956;2023-06-01T14:38:28;4.90;;;2.60;;
65597;SDS011;52267;51.984;20.956;2023-06-01T14:40:55;4.70;;;2.70;;
65597;SDS011;52267;51.984;20.956;2023-06-01T14:43:22;5.60;;;2.60;;
65597;SDS011;52267;51.984;20.956;2023-06-01T14:45:49;8.60;;;3.40;;
65597;SDS011;52267;51.984;20.956;2023-06-01T14:48:16;4.40;;;2.70;;
65597;SDS011;52267;51.984;20.956;2023-06-01T14:50:43;7.10;;;2.70;;
65597;SDS011;52267;51.984;20.956;2023-06-01T14:53:11;5.50;;;2.80;;
65597;SDS011;52267;51.984;20.956;2023-06-01T14:55:41;4.90;;;2.70;;
65597;SDS011;52267;51.984;20.956;2023-06-01T14:58:09;6.20;;;2.30;;
65597;SDS011;52267;51.984;20.956;2023-06-01T15:00:37;5.00;;;2.80;;
65597;SDS011;52267;51.984;20.956;2023-06-01T15:03:04;7.20;;;2.90;;
65597;SDS011;52267;51.984;20.956;2023-06-01T15:05:31;7.30;;;2.50;;
65597;SDS011;52267;51.984;20.956;2023-06-01T15:08:00;5.70;;;2.40;;
65597;SDS011;52267;51.984;20.956;2023-06-01T15:10:27;5.00;;;2.70;;
65597;SDS011;52267;51.984;20.956;2023-06-01T15:12:54;5.40;;;3.00;;
65597;SDS011;52267;51.984;20.956;2023-06-01T15:15:21;4.20;;;2.30;;
65597;SDS011;52267;51.984;20.956;2023-06-01T15:17:48;5.70;;;2.60;;
65597;SDS011;52267;51.984;20.956;2023-06-01T15:20:16;9.50;;;3.30;;
65597;SDS011;52267;51.984;20.956;2023-06-01T15:22:43;7.20;;;2.80;;
65597;SDS011;52267;51.984;20.956;2023-06-01T15:25:10;7.70;;;2.80;;
65597;SDS011;52267;51.984;20.956;2023-06-01T15:27:37;7.90;;;2.70;;
65597;SDS011;52267;51.984;20.956;2023-06-01T15:30:06;4.70;;;2.60;;
65597;SDS011;52267;51.984;20.956;2023-06-01T15:32:35;6.10;;;2.90;;